createdAt,value
2018-06-17T00:02:27.281Z,22.10
2018-06-17T00:04:55.518Z,22.20
2018-06-17T00:07:23.765Z,22.30
2018-06-17T00:09:52.230Z,22.30
2018-06-17T00:12:21.239Z,22.20
2018-06-17T00:14:49.483Z,22.10
2018-06-17T00:17:17.742Z,22.20
2018-06-17T00:19:45.986Z,22.30
2018-06-17T00:22:14.239Z,22.30
2018-06-17T00:24:42.505Z,22.30
2018-06-17T00:27:11.510Z,22.10
2018-06-17T00:29:39.767Z,22.10
2018-06-17T00:32:08.785Z,21.80
2018-06-17T00:34:37.022Z,21.80
2018-06-17T00:37:06.051Z,21.70
2018-06-17T00:39:34.293Z,21.70
2018-06-17T00:42:03.301Z,21.60
2018-06-17T00:44:32.335Z,21.50
2018-06-17T00:47:00.593Z,21.50
2018-06-17T00:49:28.850Z,21.50
2018-06-17T00:51:57.091Z,21.40
2018-06-17T00:54:25.342Z,21.40
2018-06-17T00:56:54.290Z,21.40
2018-06-17T00:59:22.547Z,21.40
2018-06-17T01:01:51.561Z,21.40
2018-06-17T01:04:19.823Z,21.40
2018-06-17T01:06:48.838Z,21.60
2018-06-17T01:09:17.078Z,21.60
2018-06-17T01:11:46.099Z,21.60
2018-06-17T01:14:14.342Z,21.60
2018-06-17T01:16:43.362Z,21.60
2018-06-17T01:19:11.621Z,21.60
2018-06-17T01:21:41.146Z,21.60
2018-06-17T01:24:09.410Z,21.50
2018-06-17T01:26:37.678Z,21.60
2018-06-17T01:29:06.678Z,21.50
2018-06-17T01:31:35.026Z,21.50
2018-06-17T01:34:03.268Z,21.50
2018-06-17T01:36:31.913Z,21.40
2018-06-17T01:39:00.166Z,21.40
2018-06-17T01:41:29.178Z,21.20
2018-06-17T01:43:58.191Z,21.30
2018-06-17T01:46:26.438Z,21.20
2018-06-17T01:48:56.384Z,21.40
2018-06-17T01:51:24.736Z,21.30
2018-06-17T01:53:52.970Z,21.30
2018-06-17T01:56:21.218Z,21.40
2018-06-17T01:58:49.470Z,21.50
2018-06-17T02:01:17.714Z,21.40
2018-06-17T02:03:46.734Z,21.20
2018-06-17T02:06:29.869Z,21.20
2018-06-17T02:09:13.808Z,21.20
2018-06-17T02:11:42.063Z,21.20
2018-06-17T02:14:11.174Z,21.20
2018-06-17T02:16:39.403Z,21.20
2018-06-17T02:19:07.760Z,21.30
2018-06-17T02:21:36.001Z,21.50
2018-06-17T02:24:04.247Z,21.50
2018-06-17T02:26:33.266Z,21.60
2018-06-17T02:29:01.507Z,21.60
2018-06-17T02:31:29.760Z,21.80
2018-06-17T02:33:57.999Z,21.80
2018-06-17T02:36:26.248Z,21.90
2018-06-17T02:38:55.251Z,22.00
2018-06-17T02:41:23.500Z,22.10
2018-06-17T02:43:51.737Z,22.10
2018-06-17T02:46:36.833Z,22.20
2018-06-17T02:49:20.217Z,22.20
2018-06-17T02:52:03.335Z,22.30
2018-06-17T02:54:31.774Z,22.10
2018-06-17T02:57:00.791Z,22.10
2018-06-17T02:59:29.026Z,22.10
2018-06-17T03:01:57.282Z,22.10
2018-06-17T03:04:25.518Z,22.00
2018-06-17T03:06:53.767Z,22.00
2018-06-17T03:09:22.778Z,21.90
2018-06-17T03:11:51.019Z,21.90
2018-06-17T03:14:19.274Z,21.90
2018-06-17T03:16:47.515Z,21.80
2018-06-17T03:19:15.775Z,21.80
2018-06-17T03:21:44.786Z,21.80
2018-06-17T03:24:13.023Z,21.80
2018-06-17T03:26:47.682Z,22.00
2018-06-17T03:29:30.797Z,22.00
2018-06-17T03:31:59.146Z,21.90
2018-06-17T03:34:27.424Z,21.80
2018-06-17T03:36:55.643Z,21.80
2018-06-17T03:39:23.879Z,21.90
2018-06-17T03:41:52.908Z,21.70
2018-06-17T03:44:21.246Z,21.70
2018-06-17T03:46:50.252Z,21.50
2018-06-17T03:49:19.326Z,21.50
2018-06-17T03:51:47.535Z,21.50
2018-06-17T03:54:15.991Z,21.50
2018-06-17T03:56:45.077Z,21.60
2018-06-17T03:59:13.274Z,21.60
2018-06-17T04:01:41.530Z,21.40
2018-06-17T04:04:10.553Z,21.40
2018-06-17T04:06:38.777Z,21.40
2018-06-17T04:09:07.037Z,21.30
2018-06-17T04:11:35.277Z,21.30
2018-06-17T04:14:03.526Z,21.20
2018-06-17T04:16:32.526Z,21.20
2018-06-17T04:19:01.539Z,21.30
2018-06-17T04:21:29.772Z,21.30
2018-06-17T04:23:58.783Z,21.30
2018-06-17T04:26:27.371Z,21.30
2018-06-17T04:28:55.614Z,21.30
2018-06-17T04:31:23.873Z,21.20
2018-06-17T04:33:52.872Z,21.20
2018-06-17T04:36:21.161Z,21.20
2018-06-17T04:38:51.326Z,21.20
2018-06-17T04:41:19.568Z,21.20
2018-06-17T04:43:48.584Z,21.30
2018-06-17T04:46:16.839Z,21.30
2018-06-17T04:48:45.854Z,21.20
2018-06-17T04:51:14.090Z,21.20
2018-06-17T04:53:43.110Z,21.00
2018-06-17T04:56:11.342Z,21.00
2018-06-17T04:58:39.735Z,20.80
2018-06-17T05:01:07.971Z,20.90
2018-06-17T05:03:36.202Z,20.90
2018-06-17T05:06:04.458Z,20.80
2018-06-17T05:08:32.694Z,20.80
2018-06-17T05:11:00.946Z,20.90
2018-06-17T05:13:29.191Z,20.90
2018-06-17T05:15:58.213Z,21.10
2018-06-17T05:18:26.471Z,21.10
2018-06-17T05:20:55.499Z,21.10
2018-06-17T05:23:23.730Z,21.10
2018-06-17T05:25:52.754Z,21.10
2018-06-17T05:28:20.999Z,21.10
2018-06-17T05:30:50.081Z,21.20
2018-06-17T05:33:18.298Z,21.20
2018-06-17T05:35:46.937Z,21.20
2018-06-17T05:38:15.162Z,21.20
2018-06-17T05:40:43.426Z,21.20
2018-06-17T05:43:11.692Z,21.10
2018-06-17T05:45:40.754Z,21.00
2018-06-17T05:48:09.727Z,20.90
2018-06-17T05:50:37.979Z,20.80
2018-06-17T05:53:06.227Z,21.00
2018-06-17T05:55:34.595Z,21.00
2018-06-17T05:58:03.589Z,21.10
2018-06-17T06:00:31.832Z,21.10
2018-06-17T06:03:00.875Z,21.40
2018-06-17T06:05:29.114Z,21.40
2018-06-17T06:07:58.136Z,21.50
2018-06-17T06:10:26.452Z,21.50
2018-06-17T06:12:55.406Z,21.50
2018-06-17T06:15:23.666Z,21.50
2018-06-17T06:17:52.152Z,21.50
2018-06-17T06:20:20.393Z,21.60
2018-06-17T06:22:48.631Z,21.70
2018-06-17T06:25:16.872Z,21.60
2018-06-17T06:27:45.127Z,21.70
2018-06-17T06:30:14.126Z,22.10
2018-06-17T06:32:43.164Z,22.10
2018-06-17T06:35:11.401Z,22.10
2018-06-17T06:37:39.648Z,22.40
2018-06-17T06:40:07.893Z,22.60
2018-06-17T06:42:36.142Z,22.50
2018-06-17T06:45:04.508Z,22.60
2018-06-17T06:47:33.512Z,23.10
2018-06-17T06:50:01.863Z,23.10
2018-06-17T06:52:30.060Z,23.30
2018-06-17T06:54:58.410Z,23.40
2018-06-17T06:57:27.479Z,23.50
2018-06-17T06:59:55.650Z,23.50
2018-06-17T07:02:48.542Z,23.50
2018-06-17T07:05:28.772Z,23.60
2018-06-17T07:08:08.852Z,23.80
2018-06-17T07:10:37.111Z,23.90
2018-06-17T07:13:05.366Z,23.80
2018-06-17T07:15:33.619Z,23.80
2018-06-17T07:18:23.557Z,23.90
2018-06-17T07:20:51.802Z,23.90
2018-06-17T07:23:20.046Z,24.00
2018-06-17T07:25:48.406Z,24.00
2018-06-17T07:28:16.645Z,23.70
2018-06-17T07:30:45.651Z,23.50
2018-06-17T07:33:13.971Z,23.50
2018-06-17T07:35:42.210Z,23.60
2018-06-17T07:38:10.461Z,23.80
2018-06-17T07:40:39.471Z,24.50
2018-06-17T07:43:07.710Z,24.50
2018-06-17T07:45:35.954Z,24.60
2018-06-17T07:48:04.200Z,24.40
2018-06-17T07:50:44.403Z,24.50
2018-06-17T07:53:12.696Z,24.40
2018-06-17T07:55:40.903Z,24.50
2018-06-17T07:58:09.173Z,24.70
2018-06-17T08:00:38.178Z,25.10
2018-06-17T08:03:06.423Z,25.10
2018-06-17T08:05:35.427Z,25.20
2018-06-17T08:08:03.695Z,25.20
2018-06-17T08:10:32.710Z,25.00
2018-06-17T08:13:00.963Z,25.00
2018-06-17T08:15:29.982Z,25.10
2018-06-17T08:17:58.229Z,25.10
2018-06-17T08:20:27.256Z,24.80
2018-06-17T08:22:55.791Z,24.80
2018-06-17T08:25:24.795Z,25.20
2018-06-17T08:27:54.113Z,25.30
2018-06-17T08:30:22.366Z,25.30
2018-06-17T08:32:51.361Z,25.30
2018-06-17T08:35:20.379Z,25.40
2018-06-17T08:37:48.620Z,25.40
2018-06-17T08:40:17.630Z,25.80
2018-06-17T08:42:45.878Z,25.80
2018-06-17T08:45:14.278Z,25.80
2018-06-17T08:47:43.294Z,25.50
2018-06-17T08:50:11.606Z,25.50
2018-06-17T08:52:39.902Z,25.30
2018-06-17T08:55:08.117Z,25.10
2018-06-17T08:57:36.363Z,25.10
2018-06-17T09:00:05.383Z,24.90
2018-06-17T09:02:34.683Z,24.90
2018-06-17T09:05:02.941Z,24.90
2018-06-17T09:07:31.969Z,25.00
2018-06-17T09:10:00.204Z,25.00
2018-06-17T09:12:29.253Z,25.10
2018-06-17T09:14:57.465Z,25.10
2018-06-17T09:17:26.475Z,25.10
2018-06-17T09:19:54.736Z,25.10
2018-06-17T09:22:23.770Z,25.00
2018-06-17T09:24:52.008Z,25.00
2018-06-17T09:27:21.024Z,24.60
2018-06-17T09:29:49.274Z,24.60
2018-06-17T09:32:18.359Z,24.60
2018-06-17T09:34:46.539Z,24.60
2018-06-17T09:37:15.882Z,24.60
2018-06-17T09:39:44.149Z,24.60
2018-06-17T09:42:12.400Z,24.60
2018-06-17T09:44:40.750Z,24.60
2018-06-17T09:47:08.963Z,24.70
2018-06-17T09:49:37.297Z,24.60
2018-06-17T09:52:05.571Z,24.50
2018-06-17T09:54:33.779Z,24.40
2018-06-17T09:57:02.040Z,24.60
2018-06-17T09:59:31.065Z,24.40
2018-06-17T10:01:59.311Z,24.40
2018-06-17T10:04:28.327Z,24.60
2018-06-17T10:06:56.601Z,24.60
2018-06-17T10:09:24.853Z,24.70
2018-06-17T10:11:53.114Z,24.80
2018-06-17T10:14:22.122Z,24.40
2018-06-17T10:16:51.413Z,24.30
2018-06-17T10:19:20.448Z,24.40
2018-06-17T10:21:48.777Z,24.40
2018-06-17T10:24:18.545Z,24.30
2018-06-17T10:26:46.802Z,24.30
2018-06-17T10:29:15.113Z,24.40
2018-06-17T10:31:43.405Z,24.60
2018-06-17T10:34:11.636Z,24.70
2018-06-17T10:36:39.884Z,24.90
2018-06-17T10:39:08.153Z,25.10
2018-06-17T10:41:36.409Z,25.10
2018-06-17T10:44:05.418Z,25.40
2018-06-17T10:46:34.443Z,25.40
2018-06-17T10:49:02.697Z,25.40
2018-06-17T10:51:31.190Z,25.60
2018-06-17T10:53:59.446Z,25.50
2018-06-17T10:56:27.702Z,25.50
2018-06-17T10:58:57.928Z,25.70
2018-06-17T11:01:26.938Z,25.60
2018-06-17T11:03:55.208Z,25.60
2018-06-17T11:06:24.247Z,25.50
2018-06-17T11:08:53.295Z,25.50
2018-06-17T11:11:21.563Z,25.50
2018-06-17T11:13:50.566Z,25.60
2018-06-17T11:16:18.970Z,25.50
2018-06-17T11:18:47.222Z,25.50
2018-06-17T11:21:15.489Z,25.50
2018-06-17T11:23:43.755Z,25.70
2018-06-17T11:26:12.766Z,25.50
2018-06-17T11:28:41.131Z,25.50
2018-06-17T11:31:09.388Z,25.30
2018-06-17T11:33:38.403Z,25.60
2018-06-17T11:36:06.671Z,25.60
2018-06-17T11:38:35.693Z,25.70
2018-06-17T11:41:03.947Z,25.70
2018-06-17T11:43:32.191Z,25.70
2018-06-17T11:46:00.448Z,25.80
2018-06-17T11:48:28.695Z,25.60
2018-06-17T11:50:57.011Z,25.50
2018-06-17T11:53:25.188Z,25.20
2018-06-17T11:55:57.876Z,24.90
2018-06-17T11:58:26.904Z,25.00
2018-06-17T12:00:55.150Z,24.90
2018-06-17T12:03:24.390Z,25.20
2018-06-17T12:05:52.642Z,25.30
2018-06-17T12:08:20.936Z,25.70
2018-06-17T12:10:49.194Z,25.80
2018-06-17T12:13:17.441Z,26.00
2018-06-17T12:15:46.464Z,26.00
2018-06-17T12:18:14.705Z,26.00
2018-06-17T12:20:42.940Z,26.10
2018-06-17T12:23:11.191Z,26.00
2018-06-17T12:25:39.651Z,26.00
2018-06-17T12:28:07.909Z,26.10
2018-06-17T12:30:36.931Z,25.70
2018-06-17T12:33:05.187Z,25.70
2018-06-17T12:35:34.191Z,25.30
2018-06-17T12:38:02.442Z,25.30
2018-06-17T12:40:31.472Z,25.00
2018-06-17T12:42:59.708Z,25.00
2018-06-17T12:45:28.738Z,25.40
2018-06-17T12:47:56.983Z,25.40
2018-06-17T12:50:26.058Z,25.50
2018-06-17T12:52:54.294Z,25.50
2018-06-17T12:55:22.558Z,25.50
2018-06-17T12:57:51.028Z,25.50
2018-06-17T13:00:19.287Z,25.30
2018-06-17T13:02:48.300Z,25.00
2018-06-17T13:05:16.700Z,25.00
2018-06-17T13:07:44.939Z,24.90
2018-06-17T13:10:13.191Z,25.10
2018-06-17T13:12:41.517Z,25.30
2018-06-17T13:15:09.707Z,25.20
2018-06-17T13:17:37.974Z,25.30
2018-06-17T13:20:06.226Z,25.30
2018-06-17T13:22:34.465Z,25.40
2018-06-17T13:25:02.734Z,25.50
2018-06-17T13:27:31.041Z,25.70
2018-06-17T13:30:00.255Z,25.70
2018-06-17T13:32:28.491Z,25.70
2018-06-17T13:34:57.513Z,25.70
2018-06-17T13:37:25.757Z,25.70
2018-06-17T13:39:54.781Z,25.80
2018-06-17T13:42:23.020Z,25.80
2018-06-17T13:44:52.040Z,25.60
2018-06-17T13:47:20.303Z,25.60
2018-06-17T13:49:49.319Z,25.80
2018-06-17T13:52:17.574Z,25.70
2018-06-17T13:54:46.605Z,26.10
2018-06-17T13:57:14.861Z,26.10
2018-06-17T13:59:43.150Z,26.00
2018-06-17T14:02:11.405Z,26.10
2018-06-17T14:04:39.810Z,26.00
2018-06-17T14:07:08.056Z,25.80
2018-06-17T14:09:36.326Z,25.80
2018-06-17T14:12:04.603Z,25.90
2018-06-17T14:14:32.855Z,25.90
2018-06-17T14:17:01.883Z,26.00
2018-06-17T14:19:30.126Z,25.90
2018-06-17T14:21:59.163Z,25.80
2018-06-17T14:24:27.407Z,25.80
2018-06-17T14:26:55.654Z,25.90
2018-06-17T14:29:23.922Z,26.00
2018-06-17T14:31:52.159Z,26.00
2018-06-17T14:34:20.635Z,26.00
2018-06-17T14:36:48.892Z,25.80
2018-06-17T14:39:17.200Z,25.90
2018-06-17T14:41:45.455Z,26.20
2018-06-17T14:44:34.502Z,26.40
2018-06-17T14:47:18.441Z,26.40
2018-06-17T14:50:03.193Z,25.60
2018-06-17T14:52:31.381Z,25.60
2018-06-17T14:54:59.637Z,25.70
2018-06-17T14:57:28.943Z,25.40
2018-06-17T14:59:57.157Z,25.40
2018-06-17T15:02:25.417Z,25.20
2018-06-17T15:04:53.667Z,25.20
2018-06-17T15:07:22.695Z,25.10
2018-06-17T15:09:50.961Z,25.10
2018-06-17T15:12:19.235Z,25.20
2018-06-17T15:14:47.476Z,25.10
2018-06-17T15:17:16.491Z,25.20
2018-06-17T15:19:44.742Z,25.20
2018-06-17T15:22:13.763Z,25.20
2018-06-17T15:24:42.019Z,25.20
2018-06-17T15:27:11.035Z,25.00
2018-06-17T15:29:39.305Z,25.00
2018-06-17T15:32:07.549Z,25.10
2018-06-17T15:37:48.565Z,25.10
2018-06-17T15:40:16.837Z,25.00
2018-06-17T15:42:45.864Z,24.80
2018-06-17T15:45:14.136Z,24.70
2018-06-17T15:47:42.378Z,24.80
2018-06-17T15:50:11.389Z,24.90
2018-06-17T15:52:39.646Z,24.90
2018-06-17T15:55:07.959Z,24.70
2018-06-17T15:57:37.911Z,24.60
2018-06-17T16:00:06.189Z,24.60
2018-06-17T16:02:34.455Z,24.40
2018-06-17T16:05:02.718Z,24.60
2018-06-17T16:07:30.994Z,24.50
2018-06-17T16:09:59.234Z,24.70
2018-06-17T16:12:27.522Z,24.70
2018-06-17T16:15:13.621Z,24.80
2018-06-17T16:17:59.588Z,24.80
2018-06-17T16:20:47.598Z,24.70
2018-06-17T16:23:16.684Z,24.70
2018-06-17T16:25:44.902Z,24.70
2018-06-17T16:28:13.162Z,24.70
2018-06-17T16:30:41.426Z,24.90
2018-06-17T16:33:10.431Z,24.80
2018-06-17T16:35:38.703Z,24.70
2018-06-17T16:38:06.962Z,24.80
2018-06-17T16:40:35.995Z,24.80
2018-06-17T16:43:04.371Z,24.80
2018-06-17T16:45:32.634Z,24.80
2018-06-17T16:48:00.878Z,24.70
2018-06-17T16:50:29.895Z,24.80
2018-06-17T16:53:13.859Z,24.80
2018-06-17T16:55:42.203Z,25.00
2018-06-17T16:58:30.075Z,24.90
2018-06-17T17:00:58.312Z,24.90
2018-06-17T17:03:26.561Z,25.00
2018-06-17T17:05:55.027Z,25.00
2018-06-17T17:08:23.292Z,24.80
2018-06-17T17:10:51.636Z,24.70
2018-06-17T17:13:20.119Z,24.70
2018-06-17T17:15:48.395Z,24.70
2018-06-17T17:18:16.623Z,24.90
2018-06-17T17:20:45.646Z,25.10
2018-06-17T17:23:13.930Z,25.10
2018-06-17T17:25:42.926Z,24.90
2018-06-17T17:28:12.353Z,24.90
2018-06-17T17:30:40.693Z,24.80
2018-06-17T17:33:23.829Z,24.90
2018-06-17T17:36:06.951Z,24.70
2018-06-17T17:38:35.232Z,24.50
2018-06-17T17:41:03.500Z,24.60
2018-06-17T17:43:31.746Z,24.60
2018-06-17T17:46:00.754Z,24.70
2018-06-17T17:48:29.330Z,24.70
2018-06-17T17:50:57.604Z,24.70
2018-06-17T17:53:26.614Z,24.40
2018-06-17T17:55:54.886Z,24.40
2018-06-17T17:58:23.434Z,24.40
2018-06-17T18:00:52.480Z,24.50
2018-06-17T18:03:20.751Z,24.50
2018-06-17T18:05:49.009Z,24.50
2018-06-17T18:08:17.266Z,24.50
2018-06-17T18:10:46.275Z,24.50
2018-06-17T18:13:14.601Z,24.50
2018-06-17T18:15:42.818Z,24.60
2018-06-17T18:18:11.071Z,24.60
2018-06-17T18:20:40.335Z,24.80
2018-06-17T18:23:09.334Z,24.80
2018-06-17T18:25:37.578Z,24.80
2018-06-17T18:28:24.614Z,24.90
2018-06-17T18:30:53.704Z,24.90
2018-06-17T18:33:38.670Z,24.70
2018-06-17T18:36:06.967Z,24.60
2018-06-17T18:38:35.194Z,24.30
2018-06-17T18:41:03.535Z,23.90
2018-06-17T18:43:31.755Z,23.80
2018-06-17T18:46:00.005Z,23.50
2018-06-17T18:48:28.265Z,23.40
2018-06-17T18:50:57.271Z,23.30
2018-06-17T18:53:25.519Z,23.30
2018-06-17T18:55:53.791Z,23.40
2018-06-17T18:58:22.045Z,23.30
2018-06-17T19:00:50.303Z,23.30
2018-06-17T19:03:18.552Z,23.20
2018-06-17T19:05:46.803Z,23.30
2018-06-17T19:08:15.846Z,23.30
2018-06-17T19:11:01.809Z,23.40
2018-06-17T19:13:45.372Z,23.30
2018-06-17T19:16:19.366Z,23.20
2018-06-17T19:18:47.627Z,23.20
2018-06-17T19:21:15.888Z,23.30
2018-06-17T19:23:44.900Z,23.50
2018-06-17T19:26:13.154Z,23.50
2018-06-17T19:28:42.180Z,23.40
2018-06-17T19:31:10.431Z,23.40
2018-06-17T19:33:39.446Z,23.40
2018-06-17T19:36:07.924Z,23.40
2018-06-17T19:38:36.175Z,23.30
2018-06-17T19:41:05.213Z,23.10
2018-06-17T19:43:33.435Z,23.10
2018-06-17T19:46:02.458Z,22.90
2018-06-17T19:48:30.706Z,22.90
2018-06-17T19:51:14.603Z,23.00
2018-06-17T19:54:00.569Z,23.00
2018-06-17T19:56:46.467Z,23.00
2018-06-17T19:59:31.411Z,23.00
2018-06-17T20:01:59.650Z,23.10
2018-06-17T20:04:28.693Z,23.10
2018-06-17T20:06:56.954Z,23.10
2018-06-17T20:09:25.218Z,23.00
2018-06-17T20:11:54.229Z,22.70
2018-06-17T20:14:22.466Z,22.70
2018-06-17T20:16:51.495Z,22.50
2018-06-17T20:19:19.746Z,22.50
2018-06-17T20:21:48.769Z,22.20
2018-06-17T20:24:16.997Z,22.20
2018-06-17T20:26:46.091Z,22.20
2018-06-17T20:29:14.337Z,22.20
2018-06-17T20:31:42.547Z,22.20
2018-06-17T20:34:29.280Z,22.20
2018-06-17T20:37:12.411Z,22.20
2018-06-17T20:39:55.746Z,22.30
2018-06-17T20:42:39.647Z,22.30
2018-06-17T20:45:08.674Z,22.20
2018-06-17T20:47:36.911Z,22.20
2018-06-17T20:50:05.921Z,22.00
2018-06-17T20:52:34.168Z,22.00
2018-06-17T20:55:02.418Z,21.90
2018-06-17T20:57:30.667Z,21.80
2018-06-17T20:59:58.925Z,21.70
2018-06-17T21:02:27.174Z,21.50
2018-06-17T21:04:55.436Z,21.50
2018-06-17T21:07:23.672Z,21.40
2018-06-17T21:09:52.439Z,21.50
2018-06-17T21:12:20.651Z,21.50
2018-06-17T21:14:48.900Z,21.50
2018-06-17T21:17:17.190Z,21.30
2018-06-17T21:20:06.434Z,21.10
2018-06-17T21:22:52.575Z,21.00
2018-06-17T21:28:17.429Z,20.40
2018-06-17T21:30:45.729Z,20.40
2018-06-17T21:33:13.934Z,20.60
2018-06-17T21:35:42.186Z,20.60
2018-06-17T21:38:10.438Z,20.50
2018-06-17T21:40:38.678Z,20.40
2018-06-17T21:43:07.694Z,20.60
2018-06-17T21:45:35.934Z,20.60
2018-06-17T21:48:04.214Z,20.50
2018-06-17T21:50:32.622Z,20.60
2018-06-17T21:53:00.883Z,20.60
2018-06-17T21:55:29.886Z,20.60
2018-06-17T21:57:58.137Z,20.60
2018-06-17T22:00:26.387Z,20.60
2018-06-17T22:02:54.642Z,20.60
2018-06-17T22:05:22.878Z,20.50
2018-06-17T22:07:52.121Z,20.60
2018-06-17T22:10:35.239Z,20.60
2018-06-17T22:13:03.501Z,20.60
2018-06-17T22:15:51.496Z,20.60
2018-06-17T22:18:19.756Z,20.60
2018-06-17T22:20:47.998Z,20.60
2018-06-17T22:23:16.256Z,20.50
2018-06-17T22:25:44.511Z,20.40
2018-06-17T22:28:13.526Z,20.50
2018-06-17T22:30:42.470Z,20.50
2018-06-17T22:33:10.701Z,20.50
2018-06-17T22:35:39.031Z,20.50
2018-06-17T22:38:08.106Z,20.60
2018-06-17T22:40:36.339Z,20.60
2018-06-17T22:43:04.612Z,20.70
2018-06-17T22:45:32.834Z,20.70
2018-06-17T22:48:01.085Z,20.60
2018-06-17T22:50:29.338Z,20.50
2018-06-17T22:53:17.375Z,20.50
2018-06-17T22:55:45.643Z,20.40
2018-06-17T22:58:28.837Z,20.30
2018-06-17T23:01:14.466Z,20.20
2018-06-17T23:03:58.407Z,20.20
2018-06-17T23:09:31.568Z,20.20
2018-06-17T23:12:00.576Z,20.00
2018-06-17T23:14:29.590Z,20.10
2018-06-17T23:16:57.839Z,20.10
2018-06-17T23:19:26.848Z,20.20
2018-06-17T23:21:55.119Z,20.20
2018-06-17T23:24:23.358Z,20.20
2018-06-17T23:26:51.611Z,20.30
2018-06-17T23:29:20.618Z,20.30
2018-06-17T23:31:48.863Z,20.30
2018-06-17T23:34:17.143Z,20.30
2018-06-17T23:36:45.410Z,20.30
2018-06-17T23:39:13.662Z,20.30
2018-06-17T23:41:41.893Z,20.30
2018-06-17T23:44:10.147Z,20.30
2018-06-17T23:46:38.396Z,20.30
2018-06-17T23:49:23.529Z,20.30
2018-06-17T23:52:10.434Z,20.30
2018-06-17T23:54:56.428Z,20.30
2018-06-17T23:57:24.641Z,20.30
2018-06-17T23:59:52.895Z,20.30
